Time;durP1;ratioP1;P1;durP2;ratioP2;P2;SDS_P1;SDS_P2;PMS_P1;PMS_P2;Temp;Humidity;BMP_temperature;BMP_pressure;BME280_temperature;BME280_humidity;BME280_pressure;Samples;Min_cycle;Max_cycle;Signal;HPM_P1;HPM_P2
2022/10/13 00:01:22;;;;;;;27.60;14.98;;;9.00;99.90;;;;;;5077476;28;20556;-28
2022/10/13 00:03:48;;;;;;;30.67;15.93;;;8.90;99.90;;;;;;5077742;28;20155;-28
2022/10/13 00:06:17;;;;;;;30.30;14.32;;;9.10;99.90;;;;;;5077872;28;20067;-28
2022/10/13 00:08:44;;;;;;;27.20;15.40;;;9.10;99.90;;;;;;5076994;28;20110;-28
2022/10/13 00:11:24;;;;;;;27.73;15.20;;;9.10;99.90;;;;;;5076040;28;20048;-28
2022/10/13 00:13:50;;;;;;;32.45;15.07;;;9.10;99.90;;;;;;5076558;28;20053;-28
2022/10/13 00:16:19;;;;;;;26.50;14.98;;;9.10;99.90;;;;;;5076827;28;20040;-28
2022/10/13 00:18:45;;;;;;;31.25;14.80;;;9.10;99.90;;;;;;5077632;28;20144;-28
2022/10/13 00:21:16;;;;;;;31.80;15.45;;;9.10;99.90;;;;;;5076735;28;20510;-28
2022/10/13 00:23:42;;;;;;;32.78;14.98;;;9.10;99.90;;;;;;5077635;28;20094;-29
2022/10/13 00:26:10;;;;;;;30.50;16.98;;;9.10;99.90;;;;;;5077518;28;20041;-29
2022/10/13 00:28:36;;;;;;;29.17;15.43;;;9.10;99.90;;;;;;5075404;28;20563;-28
2022/10/13 00:31:02;;;;;;;25.88;16.75;;;9.10;99.90;;;;;;5076497;28;20053;-29
2022/10/13 00:33:28;;;;;;;39.28;18.17;;;9.10;99.90;;;;;;5076511;28;20048;-28
2022/10/13 00:35:53;;;;;;;30.08;16.42;;;9.10;99.90;;;;;;5076816;28;20044;-28
2022/10/13 00:38:21;;;;;;;28.42;16.45;;;9.10;99.90;;;;;;5075191;28;20414;-28
2022/10/13 00:40:52;;;;;;;30.58;17.15;;;9.10;99.90;;;;;;5076307;28;20040;-28
2022/10/13 00:43:20;;;;;;;28.33;16.65;;;9.10;99.90;;;;;;5077508;28;20044;-28
2022/10/13 00:45:49;;;;;;;36.25;16.05;;;9.20;99.90;;;;;;5076398;28;20479;-28
2022/10/13 00:48:21;;;;;;;30.45;17.67;;;9.20;99.90;;;;;;5075950;28;20418;-28
2022/10/13 00:50:47;;;;;;;38.75;19.00;;;9.20;99.90;;;;;;5076173;28;20482;-29
2022/10/13 00:53:15;;;;;;;29.92;16.77;;;9.20;99.90;;;;;;5075371;28;20186;-28
2022/10/13 00:55:42;;;;;;;36.55;18.35;;;9.20;99.90;;;;;;5076129;28;20048;-28
2022/10/13 00:58:14;;;;;;;36.55;18.15;;;9.10;99.90;;;;;;5076039;28;20041;-28
2022/10/13 01:00:45;;;;;;;35.38;17.58;;;9.20;99.90;;;;;;5076194;28;20532;-28
2022/10/13 01:03:11;;;;;;;39.38;18.55;;;9.20;99.90;;;;;;5075088;28;20513;-29
2022/10/13 01:05:38;;;;;;;39.00;18.38;;;9.10;99.90;;;;;;5076555;28;20040;-28
2022/10/13 01:08:05;;;;;;;31.42;16.85;;;9.10;99.90;;;;;;5076746;28;20053;-28
2022/10/13 01:10:49;;;;;;;32.97;17.95;;;9.10;99.90;;;;;;5075872;28;20044;-28
2022/10/13 01:13:38;;;;;;;30.83;17.08;;;9.10;99.90;;;;;;5074900;28;20437;-28
2022/10/13 01:17:00;;;;;;;33.60;17.15;;;9.10;99.90;;;;;;5076395;28;20041;-28
2022/10/13 01:19:54;;;;;;;35.22;17.77;;;9.10;99.90;;;;;;5034335;28;20132;-28
2022/10/13 01:22:35;;;;;;;37.63;17.60;;;9.10;99.90;;;;;;5033451;28;20045;-28
2022/10/13 01:25:15;;;;;;;30.33;17.77;;;9.10;99.90;;;;;;5070843;28;20062;-28
2022/10/13 01:28:05;;;;;;;37.00;17.55;;;9.00;99.90;;;;;;5076171;28;20123;-27
2022/10/13 01:30:36;;;;;;;41.55;18.05;;;9.10;99.90;;;;;;5074390;28;20044;-30
2022/10/13 01:33:18;;;;;;;32.88;18.75;;;9.00;99.90;;;;;;5076254;28;20120;-29
2022/10/13 01:36:09;;;;;;;33.05;18.40;;;9.00;99.90;;;;;;5075305;28;20048;-28
2022/10/13 01:38:44;;;;;;;37.85;20.38;;;9.10;99.90;;;;;;5075392;28;20048;-28
2022/10/13 01:41:16;;;;;;;41.22;20.08;;;9.00;99.90;;;;;;5074735;28;20046;-28
2022/10/13 01:43:51;;;;;;;40.53;19.20;;;9.10;99.90;;;;;;5076043;28;20036;-29
2022/10/13 01:46:39;;;;;;;39.40;19.58;;;9.00;99.90;;;;;;5075214;28;20483;-28
2022/10/13 01:49:10;;;;;;;34.13;19.02;;;9.00;99.90;;;;;;5073407;28;20049;-28
2022/10/13 01:51:37;;;;;;;36.80;19.58;;;9.10;99.90;;;;;;5075685;28;20059;-28
2022/10/13 01:54:03;;;;;;;33.97;18.88;;;9.10;99.90;;;;;;5074968;28;20124;-29
2022/10/13 01:56:28;;;;;;;39.40;19.10;;;9.10;99.90;;;;;;5074045;28;20151;-28
2022/10/13 01:58:57;;;;;;;32.25;19.45;;;9.10;99.90;;;;;;5073681;28;20540;-28
2022/10/13 02:01:26;;;;;;;30.42;18.08;;;9.10;99.90;;;;;;5075694;28;20115;-28
2022/10/13 02:03:58;;;;;;;37.35;18.55;;;9.20;99.90;;;;;;5075389;28;20056;-28
2022/10/13 02:06:50;;;;;;;35.70;18.73;;;9.20;99.90;;;;;;5073635;28;20048;-29
2022/10/13 02:09:40;;;;;;;37.60;18.75;;;9.10;99.90;;;;;;5074810;28;20127;-28
2022/10/13 02:12:13;;;;;;;31.80;17.77;;;9.10;99.90;;;;;;5073742;28;20041;-28
2022/10/13 02:14:41;;;;;;;35.85;18.27;;;9.10;99.90;;;;;;5075269;28;20052;-28
2022/10/13 02:17:06;;;;;;;35.63;18.35;;;9.20;99.90;;;;;;5057275;28;20091;-28
2022/10/13 02:19:35;;;;;;;33.72;18.48;;;9.10;99.90;;;;;;5073390;28;20084;-29
2022/10/13 02:22:01;;;;;;;37.35;17.67;;;9.20;99.90;;;;;;5073860;28;20060;-28
2022/10/13 02:24:28;;;;;;;36.40;18.77;;;9.20;99.90;;;;;;5074154;28;20494;-28
2022/10/13 02:26:54;;;;;;;34.00;17.90;;;9.20;99.90;;;;;;5073408;28;20135;-29
2022/10/13 02:29:20;;;;;;;39.33;18.48;;;9.20;99.90;;;;;;5075141;28;20045;-28
2022/10/13 02:31:46;;;;;;;34.70;18.02;;;9.20;99.90;;;;;;5074309;28;20044;-28
2022/10/13 02:34:12;;;;;;;35.05;17.75;;;9.20;99.90;;;;;;5073010;28;20051;-28
2022/10/13 02:36:39;;;;;;;31.73;18.45;;;9.20;99.90;;;;;;5073239;28;20080;-29
2022/10/13 02:39:07;;;;;;;41.35;19.08;;;9.20;99.90;;;;;;5074970;28;20097;-28
2022/10/13 02:41:32;;;;;;;32.08;17.73;;;9.10;99.90;;;;;;5074121;28;20127;-28
2022/10/13 02:43:58;;;;;;;39.45;18.15;;;9.10;99.90;;;;;;5056787;28;20127;-28
2022/10/13 02:46:24;;;;;;;32.40;17.65;;;9.10;99.90;;;;;;5072714;28;20117;-28
2022/10/13 02:48:50;;;;;;;33.10;17.30;;;9.10;99.90;;;;;;5074591;28;20052;-28
2022/10/13 02:51:16;;;;;;;31.88;16.92;;;9.10;99.90;;;;;;5073981;28;20490;-28
2022/10/13 02:53:42;;;;;;;38.97;18.90;;;9.10;99.90;;;;;;5072763;28;20043;-28
2022/10/13 02:56:07;;;;;;;34.70;18.15;;;9.10;99.90;;;;;;5074229;28;20051;-28
2022/10/13 02:58:34;;;;;;;32.50;17.60;;;9.20;99.90;;;;;;5072847;28;20048;-28
2022/10/13 03:01:11;;;;;;;31.55;16.48;;;9.20;99.90;;;;;;5073853;28;20177;-28
2022/10/13 03:03:38;;;;;;;31.58;16.85;;;9.20;99.90;;;;;;5074386;28;20044;-29
2022/10/13 03:06:04;;;;;;;32.63;17.38;;;9.40;99.90;;;;;;5056417;28;20054;-29
2022/10/13 03:08:31;;;;;;;26.83;16.10;;;9.40;99.90;;;;;;5073769;28;20040;-28
2022/10/13 03:10:56;;;;;;;30.95;17.38;;;9.50;99.90;;;;;;5073762;28;20142;-28
2022/10/13 03:13:22;;;;;;;26.92;15.82;;;9.50;99.90;;;;;;5073689;28;20040;-28
2022/10/13 03:15:48;;;;;;;29.67;15.15;;;9.50;99.90;;;;;;5072463;28;20075;-28
2022/10/13 03:18:14;;;;;;;30.42;17.42;;;9.50;99.90;;;;;;5074343;28;20059;-28
2022/10/13 03:20:39;;;;;;;27.98;16.45;;;9.60;99.90;;;;;;5073659;28;20437;-28
2022/10/13 03:23:08;;;;;;;36.72;17.83;;;9.60;99.90;;;;;;5072738;28;20040;-28
2022/10/13 03:25:34;;;;;;;30.83;17.15;;;9.50;99.90;;;;;;5074397;28;20109;-28
2022/10/13 03:28:00;;;;;;;30.30;16.63;;;9.50;99.90;;;;;;5073576;28;20123;-28
2022/10/13 03:30:26;;;;;;;35.33;17.98;;;9.50;99.90;;;;;;5073630;28;20076;-28
2022/10/13 03:32:52;;;;;;;34.40;18.60;;;9.50;99.90;;;;;;5072267;28;20468;-28
2022/10/13 03:35:18;;;;;;;33.63;20.02;;;9.50;99.90;;;;;;5072512;28;20049;-29
2022/10/13 03:37:43;;;;;;;37.00;19.27;;;9.40;99.90;;;;;;5073501;28;20116;-28
2022/10/13 03:40:10;;;;;;;48.22;20.85;;;9.40;99.90;;;;;;5072492;28;20131;-29
2022/10/13 03:42:36;;;;;;;43.55;21.08;;;9.40;99.90;;;;;;5073654;28;20055;-28
2022/10/13 03:45:03;;;;;;;42.08;21.23;;;9.40;99.90;;;;;;5073240;28;20510;-27
2022/10/13 03:47:29;;;;;;;37.45;20.83;;;9.40;99.90;;;;;;5055869;28;20091;-28
2022/10/13 03:49:55;;;;;;;37.60;19.63;;;9.40;99.90;;;;;;5073905;28;20059;-27
2022/10/13 03:52:21;;;;;;;41.40;22.40;;;9.40;99.90;;;;;;5072056;28;20410;-27
2022/10/13 03:54:47;;;;;;;41.30;22.50;;;9.30;99.90;;;;;;5073324;28;20044;-27
2022/10/13 03:57:13;;;;;;;52.47;23.63;;;9.30;99.90;;;;;;5072211;28;20048;-27
2022/10/13 03:59:41;;;;;;;38.20;21.55;;;9.30;99.90;;;;;;5073318;28;20044;-27
2022/10/13 04:02:07;;;;;;;41.40;23.23;;;9.30;99.90;;;;;;5073287;28;20052;-27
2022/10/13 04:04:34;;;;;;;51.72;26.77;;;9.30;99.90;;;;;;5072530;28;20041;-27
2022/10/13 04:07:00;;;;;;;43.88;24.67;;;9.30;99.90;;;;;;5072025;28;20406;-27
2022/10/13 04:09:26;;;;;;;48.42;25.65;;;9.30;99.90;;;;;;5072576;28;20098;-27
2022/10/13 04:11:51;;;;;;;44.25;25.08;;;9.30;99.90;;;;;;5074015;28;20041;-27
2022/10/13 04:14:18;;;;;;;48.63;27.10;;;9.30;99.90;;;;;;5073107;28;20486;-27
2022/10/13 04:16:44;;;;;;;49.25;26.65;;;9.30;99.90;;;;;;5073961;28;20079;-27
2022/10/13 04:19:11;;;;;;;50.03;27.92;;;9.30;99.90;;;;;;5071946;28;20486;-27
2022/10/13 04:21:37;;;;;;;53.00;26.73;;;9.40;99.90;;;;;;5071904;28;20044;-27
2022/10/13 04:24:04;;;;;;;50.70;27.35;;;9.30;99.90;;;;;;5073076;28;20051;-27
2022/10/13 04:26:33;;;;;;;47.45;26.52;;;9.40;99.90;;;;;;5073028;28;20048;-26
2022/10/13 04:29:00;;;;;;;49.78;26.98;;;9.40;99.90;;;;;;5073996;28;20588;-26
2022/10/13 04:31:28;;;;;;;51.83;27.90;;;9.40;99.90;;;;;;5077474;28;20043;-26
2022/10/13 04:33:54;;;;;;;58.05;30.23;;;9.40;99.90;;;;;;5075311;28;20044;-27
2022/10/13 04:36:20;;;;;;;54.15;27.52;;;9.40;99.90;;;;;;5077392;28;20127;-26
2022/10/13 04:38:46;;;;;;;51.42;29.10;;;9.40;99.90;;;;;;5076211;28;20425;-27
2022/10/13 04:41:14;;;;;;;54.88;28.70;;;9.40;99.90;;;;;;5076426;28;20041;-26
2022/10/13 04:43:40;;;;;;;54.05;27.92;;;9.40;99.90;;;;;;5075682;28;20483;-26
2022/10/13 04:46:09;;;;;;;46.67;28.38;;;9.40;99.90;;;;;;5076112;28;20106;-26
2022/10/13 04:48:35;;;;;;;54.03;28.38;;;9.40;99.90;;;;;;5075082;28;20139;-26
2022/10/13 04:51:02;;;;;;;58.10;29.58;;;9.40;99.90;;;;;;5076747;28;20143;-26
2022/10/13 04:53:29;;;;;;;55.92;28.92;;;9.40;99.90;;;;;;5074969;28;20052;-25
2022/10/13 04:55:55;;;;;;;50.38;29.02;;;9.40;99.90;;;;;;5074979;28;20410;-25
2022/10/13 04:58:21;;;;;;;52.45;29.65;;;9.40;99.90;;;;;;5058411;28;20048;-25
2022/10/13 05:00:47;;;;;;;61.72;28.98;;;9.40;99.90;;;;;;5076157;28;20376;-24
2022/10/13 05:03:12;;;;;;;61.30;33.42;;;9.40;99.90;;;;;;5076296;28;20128;-24
2022/10/13 05:05:39;;;;;;;67.63;33.65;;;9.40;99.90;;;;;;5076003;28;20053;-24
2022/10/13 05:08:05;;;;;;;70.05;33.45;;;9.40;99.90;;;;;;5041807;28;20048;-24
2022/10/13 05:10:30;;;;;;;67.45;33.03;;;9.40;99.90;;;;;;5074792;28;20052;-24
2022/10/13 05:12:56;;;;;;;59.05;31.50;;;9.40;99.90;;;;;;5075824;28;20128;-23
2022/10/13 05:15:22;;;;;;;60.70;31.05;;;9.40;99.90;;;;;;5075875;28;20041;-24
2022/10/13 05:17:48;;;;;;;67.22;34.30;;;9.40;99.90;;;;;;5075796;28;20131;-23
2022/10/13 05:20:13;;;;;;;64.35;33.03;;;9.40;99.90;;;;;;5075761;28;20048;-23
2022/10/13 05:22:39;;;;;;;76.55;37.05;;;9.40;99.90;;;;;;5074555;28;20047;-23
2022/10/13 05:25:05;;;;;;;68.15;34.50;;;9.40;99.90;;;;;;5074489;28;20052;-23
2022/10/13 05:27:30;;;;;;;56.85;33.22;;;9.40;99.90;;;;;;5057984;28;20063;-22
2022/10/13 05:29:56;;;;;;;75.63;37.05;;;9.40;99.90;;;;;;5075648;28;20051;-23
2022/10/13 05:32:22;;;;;;;74.18;36.97;;;9.40;99.90;;;;;;5057901;28;20052;-22
2022/10/13 05:34:48;;;;;;;65.15;35.95;;;9.40;99.90;;;;;;5076047;28;20044;-22
2022/10/13 05:37:15;;;;;;;67.05;36.78;;;9.40;99.90;;;;;;5075385;28;20045;-23
2022/10/13 05:39:42;;;;;;;78.30;37.10;;;9.40;99.90;;;;;;5074644;28;20055;-22
2022/10/13 05:42:07;;;;;;;76.05;38.63;;;9.40;99.90;;;;;;5074175;28;20051;-22
2022/10/13 05:44:35;;;;;;;81.00;38.47;;;9.40;99.90;;;;;;5075826;28;20471;-22
2022/10/13 05:47:01;;;;;;;87.15;38.13;;;9.50;99.90;;;;;;5075094;28;20063;-22
2022/10/13 05:49:26;;;;;;;68.28;36.28;;;9.50;99.90;;;;;;5074244;28;20049;-22
2022/10/13 05:51:56;;;;;;;88.13;41.45;;;9.50;99.90;;;;;;5075089;28;20048;-22
2022/10/13 05:54:23;;;;;;;82.90;38.45;;;9.50;99.90;;;;;;5075213;28;20394;-22
2022/10/13 05:56:55;;;;;;;78.60;37.17;;;9.50;99.90;;;;;;5075027;28;20483;-22
2022/10/13 05:59:21;;;;;;;86.18;40.17;;;9.50;99.90;;;;;;5075041;28;20105;-22
2022/10/13 06:01:47;;;;;;;80.82;41.30;;;9.50;99.90;;;;;;5073766;28;20402;-23
2022/10/13 06:04:25;;;;;;;86.88;40.72;;;9.50;99.90;;;;;;5074940;28;20052;-24
2022/10/13 06:06:51;;;;;;;97.68;43.72;;;9.50;99.90;;;;;;5074817;28;20052;-24
2022/10/13 06:09:17;;;;;;;96.15;44.45;;;9.60;99.90;;;;;;5073602;28;20055;-24
2022/10/13 06:11:43;;;;;;;84.68;41.50;;;9.50;99.90;;;;;;5075563;28;20044;-24
2022/10/13 06:14:08;;;;;;;96.43;44.25;;;9.60;99.90;;;;;;5073686;28;20364;-24
2022/10/13 06:16:35;;;;;;;93.43;43.70;;;9.70;99.90;;;;;;5073484;28;20367;-24
2022/10/13 06:19:02;;;;;;;97.50;44.42;;;9.60;99.90;;;;;;5074225;28;20368;-24
2022/10/13 06:21:28;;;;;;;90.25;42.78;;;9.60;99.90;;;;;;5074207;28;20414;-24
2022/10/13 06:23:54;;;;;;;87.88;43.83;;;9.70;99.90;;;;;;5074484;28;20045;-24
2022/10/13 06:26:19;;;;;;;96.50;43.47;;;9.80;99.90;;;;;;5056898;28;20132;-24
2022/10/13 06:28:45;;;;;;;86.03;41.60;;;9.80;99.90;;;;;;5040504;28;20051;-24
2022/10/13 06:31:11;;;;;;;101.03;44.88;;;9.80;99.90;;;;;;5073084;28;20051;-25
2022/10/13 06:33:36;;;;;;;99.20;44.67;;;9.90;99.90;;;;;;5074821;28;20037;-25
2022/10/13 06:36:04;;;;;;;93.07;44.00;;;10.00;99.90;;;;;;5073012;28;20194;-24
2022/10/13 06:38:31;;;;;;;104.57;44.22;;;10.00;99.90;;;;;;5073457;28;20047;-25
2022/10/13 06:41:00;;;;;;;100.55;44.00;;;10.00;99.90;;;;;;5074170;28;20051;-25
2022/10/13 06:43:26;;;;;;;94.10;44.28;;;9.90;99.90;;;;;;5074136;28;20044;-25
2022/10/13 06:45:52;;;;;;;97.88;45.40;;;10.10;99.90;;;;;;5072716;28;20101;-25
2022/10/13 06:48:18;;;;;;;104.22;47.80;;;10.00;99.90;;;;;;5072824;28;20189;-24
2022/10/13 06:50:43;;;;;;;84.30;42.58;;;10.10;99.90;;;;;;5072796;28;20049;-24
2022/10/13 06:53:09;;;;;;;92.65;45.63;;;10.20;99.90;;;;;;5073629;28;20459;-24
2022/10/13 06:55:35;;;;;;;93.57;42.13;;;10.20;99.90;;;;;;5073986;28;20052;-24
2022/10/13 06:58:00;;;;;;;85.57;41.38;;;10.20;99.90;;;;;;5056095;28;20534;-24
2022/10/13 07:00:26;;;;;;;71.68;39.80;;;10.30;99.90;;;;;;5073895;28;20040;-24
2022/10/13 07:02:52;;;;;;;78.47;40.22;;;10.30;99.90;;;;;;5073865;28;20051;-24
2022/10/13 07:05:18;;;;;;;67.70;39.10;;;10.30;99.90;;;;;;5055966;28;20044;-24
2022/10/13 07:07:44;;;;;;;69.05;36.75;;;10.50;99.90;;;;;;5073130;28;20052;-25
2022/10/13 07:10:09;;;;;;;65.68;36.38;;;10.50;99.90;;;;;;5074087;28;20044;-24
2022/10/13 07:12:35;;;;;;;63.58;35.58;;;10.60;99.90;;;;;;5073326;28;20040;-24
2022/10/13 07:15:01;;;;;;;68.30;37.15;;;10.70;99.90;;;;;;5072801;28;20390;-24
2022/10/13 07:17:26;;;;;;;62.17;38.03;;;10.80;99.90;;;;;;5072525;28;20045;-24
2022/10/13 07:19:52;;;;;;;60.53;34.35;;;10.90;99.90;;;;;;5072509;28;20044;-23
2022/10/13 07:22:18;;;;;;;55.88;34.85;;;10.90;99.90;;;;;;5072156;28;20153;-24
2022/10/13 07:24:43;;;;;;;58.75;33.67;;;11.00;99.90;;;;;;5073690;28;20102;-24
2022/10/13 07:27:09;;;;;;;56.67;30.92;;;11.00;99.90;;;;;;5073588;28;20045;-24
2022/10/13 07:29:35;;;;;;;50.13;29.45;;;11.00;99.90;;;;;;5074166;28;20040;-24
2022/10/13 07:32:01;;;;;;;55.97;32.72;;;11.10;99.90;;;;;;5072585;28;20048;-24
2022/10/13 07:34:26;;;;;;;51.67;32.13;;;11.20;99.90;;;;;;5073062;28;20044;-24
2022/10/13 07:36:52;;;;;;;43.35;29.05;;;11.20;99.90;;;;;;5073496;28;20123;-24
2022/10/13 07:39:18;;;;;;;61.63;33.88;;;11.20;99.90;;;;;;5073447;28;20059;-24
2022/10/13 07:41:43;;;;;;;43.00;28.67;;;11.30;99.90;;;;;;5073456;28;20044;-24
2022/10/13 07:44:09;;;;;;;48.78;30.77;;;11.30;99.90;;;;;;5073469;28;20036;-24
2022/10/13 07:46:35;;;;;;;50.63;29.30;;;11.40;99.90;;;;;;5074051;28;20106;-24
2022/10/13 07:49:00;;;;;;;49.63;31.02;;;11.50;99.90;;;;;;5073268;28;20048;-24
2022/10/13 07:51:26;;;;;;;54.58;31.98;;;11.60;99.90;;;;;;5073403;28;20052;-24
2022/10/13 07:53:52;;;;;;;42.67;25.35;;;11.60;99.90;;;;;;5056294;28;20041;-24
2022/10/13 07:56:18;;;;;;;46.58;29.85;;;11.70;99.90;;;;;;5073847;28;20478;-24
2022/10/13 07:58:45;;;;;;;46.95;29.75;;;11.80;99.90;;;;;;5072298;28;20045;-24
2022/10/13 08:01:12;;;;;;;47.88;29.63;;;11.80;99.90;;;;;;5073581;28;20056;-24
2022/10/13 08:03:39;;;;;;;49.97;30.58;;;11.90;99.90;;;;;;5073847;28;20076;-24
2022/10/13 08:06:06;;;;;;;45.58;27.90;;;12.00;99.90;;;;;;5077135;28;20053;-24
2022/10/13 08:08:32;;;;;;;50.78;31.02;;;12.00;99.90;;;;;;5077100;28;20055;-24
2022/10/13 08:11:07;;;;;;;47.08;30.98;;;12.10;99.90;;;;;;5077029;28;20397;-24
2022/10/13 08:13:33;;;;;;;48.03;28.80;;;12.20;99.90;;;;;;5075741;28;20394;-24
2022/10/13 08:16:00;;;;;;;48.28;27.50;;;12.20;99.90;;;;;;5077012;28;20050;-25
2022/10/13 08:18:26;;;;;;;41.78;27.20;;;12.20;99.90;;;;;;5075910;28;20041;-25
2022/10/13 08:20:52;;;;;;;46.90;31.02;;;12.10;99.90;;;;;;5076861;28;20045;-25
2022/10/13 08:23:17;;;;;;;50.30;29.88;;;12.10;99.90;;;;;;5077080;28;20120;-24
2022/10/13 08:25:43;;;;;;;40.25;24.52;;;12.20;99.90;;;;;;5075588;28;20084;-25
2022/10/13 08:28:22;;;;;;;35.85;25.50;;;12.30;99.90;;;;;;5076724;28;20048;-25
2022/10/13 08:30:50;;;;;;;42.50;27.55;;;12.20;99.90;;;;;;5075499;28;20098;-24
2022/10/13 08:33:16;;;;;;;49.20;28.27;;;12.20;99.90;;;;;;5076570;28;20491;-25
2022/10/13 08:35:42;;;;;;;49.42;30.52;;;12.30;99.90;;;;;;5075473;28;20053;-25
2022/10/13 08:38:08;;;;;;;47.47;31.33;;;12.30;99.90;;;;;;5076559;28;20048;-25
2022/10/13 08:40:35;;;;;;;33.03;22.55;;;12.30;99.90;;;;;;5075559;28;20135;-25
2022/10/13 08:43:07;;;;;;;46.38;28.23;;;12.30;99.90;;;;;;5076503;28;20052;-25
2022/10/13 08:45:34;;;;;;;45.22;31.20;;;12.30;99.90;;;;;;5076891;28;20060;-25
2022/10/13 08:48:02;;;;;;;41.47;27.02;;;12.30;99.90;;;;;;5076696;28;20123;-25
2022/10/13 08:50:35;;;;;;;46.10;28.70;;;12.40;99.90;;;;;;5075892;28;20108;-25
2022/10/13 08:53:04;;;;;;;47.40;29.73;;;12.40;99.90;;;;;;5058480;28;20131;-25
2022/10/13 08:55:48;;;;;;;49.53;30.83;;;12.50;99.90;;;;;;5075081;28;20110;-25
2022/10/13 08:58:30;;;;;;;45.72;30.38;;;12.50;99.90;;;;;;5076127;28;20568;-26
2022/10/13 09:01:08;;;;;;;45.08;29.08;;;12.60;99.90;;;;;;5075963;28;20556;-26
2022/10/13 09:03:49;;;;;;;55.38;32.67;;;12.60;99.90;;;;;;5075098;28;20078;-25
2022/10/13 09:06:27;;;;;;;57.75;34.15;;;12.70;99.90;;;;;;5075095;28;20534;-25
2022/10/13 09:08:59;;;;;;;54.13;32.58;;;12.70;99.90;;;;;;5075084;28;20509;-25
2022/10/13 09:11:32;;;;;;;49.47;28.55;;;12.80;99.90;;;;;;5076788;28;20127;-25
2022/10/13 09:14:01;;;;;;;48.78;29.98;;;12.80;99.90;;;;;;5076527;28;20072;-26
2022/10/13 09:16:38;;;;;;;52.65;32.33;;;12.90;99.90;;;;;;5074830;28;20049;-26
2022/10/13 09:19:26;;;;;;;46.35;29.23;;;12.90;99.90;;;;;;5074942;28;20048;-26
2022/10/13 09:22:22;;;;;;;38.15;27.52;;;13.00;99.90;;;;;;5074741;28;20053;-26
2022/10/13 09:25:07;;;;;;;46.60;31.67;;;13.00;99.90;;;;;;5075758;28;20048;-25
2022/10/13 09:27:56;;;;;;;49.60;31.73;;;13.00;99.90;;;;;;5058271;28;20063;-25
2022/10/13 09:30:30;;;;;;;46.03;27.70;;;13.00;99.90;;;;;;5075618;28;20051;-26
2022/10/13 09:33:10;;;;;;;51.28;30.30;;;13.10;99.90;;;;;;5075989;28;20063;-26
2022/10/13 09:36:03;;;;;;;47.28;31.10;;;13.10;99.90;;;;;;5074353;28;20091;-25
2022/10/13 09:38:29;;;;;;;47.60;28.88;;;13.00;99.90;;;;;;5073374;28;20079;-25
2022/10/13 09:41:05;;;;;;;44.17;29.50;;;13.10;99.90;;;;;;5076181;28;20041;-25
2022/10/13 09:43:33;;;;;;;41.15;28.40;;;13.10;99.90;;;;;;5076018;28;20123;-25
2022/10/13 09:46:01;;;;;;;51.28;32.67;;;13.10;99.90;;;;;;5075348;28;20059;-25
2022/10/13 09:48:31;;;;;;;46.75;32.20;;;13.10;99.90;;;;;;5075245;28;20045;-25
2022/10/13 09:50:57;;;;;;;38.08;23.40;;;13.30;99.90;;;;;;5075983;28;20138;-25
2022/10/13 09:53:38;;;;;;;38.53;24.73;;;13.30;99.90;;;;;;5075071;28;20040;-25
2022/10/13 09:56:07;;;;;;;47.42;31.00;;;13.30;99.90;;;;;;5074749;28;20048;-25
2022/10/13 09:58:38;;;;;;;50.05;30.63;;;13.30;99.90;;;;;;5070738;28;20050;-26
2022/10/13 10:01:05;;;;;;;43.30;29.20;;;13.30;99.90;;;;;;5063454;28;20036;-25
2022/10/13 10:03:34;;;;;;;55.10;32.47;;;13.30;99.90;;;;;;5065090;28;20049;-25
2022/10/13 10:06:05;;;;;;;53.08;32.75;;;13.30;99.90;;;;;;5055104;28;20045;-25
2022/10/13 10:08:51;;;;;;;47.92;30.92;;;13.30;99.90;;;;;;5063342;28;20214;-25
2022/10/13 10:11:44;;;;;;;49.33;32.45;;;13.30;99.90;;;;;;5057293;28;20052;-25
2022/10/13 10:14:24;;;;;;;48.45;28.38;;;13.30;99.90;;;;;;5050461;28;20491;-24
2022/10/13 10:17:14;;;;;;;54.47;32.70;;;13.20;99.90;;;;;;5055040;28;20142;-24
2022/10/13 10:20:13;;;;;;;59.92;35.88;;;13.20;99.90;;;;;;5044452;28;20052;-24
2022/10/13 10:23:03;;;;;;;47.25;29.88;;;13.30;99.90;;;;;;5063757;28;20128;-24
2022/10/13 10:25:52;;;;;;;44.22;29.10;;;13.30;99.90;;;;;;5075024;28;20049;-24
2022/10/13 10:28:36;;;;;;;48.35;30.65;;;13.40;99.90;;;;;;5074635;28;20053;-24
2022/10/13 10:31:04;;;;;;;54.03;34.38;;;13.50;99.90;;;;;;5070934;28;20056;-24
2022/10/13 10:33:59;;;;;;;54.88;33.15;;;13.50;99.90;;;;;;5074253;28;20084;-24
2022/10/13 10:36:40;;;;;;;68.18;41.50;;;13.60;99.90;;;;;;5073129;28;20106;-24
2022/10/13 10:39:22;;;;;;;75.05;44.80;;;13.60;99.90;;;;;;5072947;28;20074;-25
2022/10/13 10:42:26;;;;;;;67.10;39.22;;;13.60;99.90;;;;;;5074759;28;20048;-25
2022/10/13 10:44:52;;;;;;;;;;;13.60;99.90;;;;;;5071275;28;20417;-24
2022/10/13 10:47:33;;;;;;;67.43;41.63;;;13.60;99.90;;;;;;5070355;28;20358;-25
2022/10/13 10:50:06;;;;;;;63.00;37.47;;;13.60;99.90;;;;;;5062826;28;20139;-25
2022/10/13 10:52:57;;;;;;;53.55;33.25;;;13.70;99.90;;;;;;5056153;28;20052;-25
2022/10/13 10:55:44;;;;;;;60.60;37.40;;;13.70;99.90;;;;;;5048332;28;20067;-25
2022/10/13 10:58:29;;;;;;;56.90;33.65;;;13.80;99.90;;;;;;5053493;28;20128;-26
2022/10/13 11:01:06;;;;;;;51.97;33.67;;;13.80;99.90;;;;;;5063426;28;20040;-25
2022/10/13 11:03:49;;;;;;;50.08;31.75;;;13.80;99.90;;;;;;5073192;28;20052;-25
2022/10/13 11:06:15;;;;;;;47.05;33.55;;;13.90;99.90;;;;;;5074692;28;20055;-25
2022/10/13 11:08:43;;;;;;;54.13;32.63;;;13.90;99.90;;;;;;5058083;28;20205;-25
2022/10/13 11:11:24;;;;;;;43.42;27.75;;;13.90;99.90;;;;;;5056674;28;20052;-25
2022/10/13 11:13:53;;;;;;;41.08;26.98;;;13.90;99.90;;;;;;5053895;28;20056;-26
2022/10/13 11:16:39;;;;;;;51.22;32.92;;;13.90;99.90;;;;;;5055361;28;20126;-25
2022/10/13 11:19:27;;;;;;;45.42;30.38;;;14.10;99.90;;;;;;5053948;28;20510;-26
2022/10/13 11:21:52;;;;;;;45.08;30.92;;;14.30;99.90;;;;;;5058587;28;20049;-25
2022/10/13 11:24:35;;;;;;;51.63;31.60;;;14.30;99.90;;;;;;5073632;28;20048;-25
2022/10/13 11:27:15;;;;;;;40.10;27.23;;;14.40;99.90;;;;;;5071854;28;20052;-26
2022/10/13 11:29:56;;;;;;;41.90;27.38;;;14.30;99.90;;;;;;5069065;28;20494;-25
2022/10/13 11:32:25;;;;;;;36.95;27.10;;;14.30;99.90;;;;;;5071938;28;20127;-25
2022/10/13 11:35:09;;;;;;;36.92;26.45;;;14.30;99.90;;;;;;5073394;28;20056;-25
2022/10/13 11:37:47;;;;;;;28.10;19.83;;;14.40;99.90;;;;;;5055236;28;20460;-25
2022/10/13 11:40:35;;;;;;;41.03;25.92;;;14.30;99.90;;;;;;5059665;28;20045;-25
2022/10/13 11:43:40;;;;;;;27.67;21.70;;;14.40;99.90;;;;;;5057339;28;20483;-25
2022/10/13 11:46:23;;;;;;;31.58;22.85;;;14.50;99.90;;;;;;5056278;28;20514;-25
2022/10/13 11:48:55;;;;;;;33.00;24.88;;;14.60;99.90;;;;;;5058940;28;20491;-26
2022/10/13 11:51:41;;;;;;;30.20;21.33;;;14.70;99.90;;;;;;5057261;28;20075;-25
2022/10/13 11:54:10;;;;;;;30.35;23.08;;;14.80;99.90;;;;;;5059696;28;20126;-25
2022/10/13 11:56:54;;;;;;;19.92;14.25;;;14.90;99.90;;;;;;5057337;28;20041;-25
2022/10/13 11:59:23;;;;;;;19.48;15.38;;;14.80;99.90;;;;;;5062353;28;20497;-25
2022/10/13 12:01:56;;;;;;;19.90;15.23;;;14.90;99.90;;;;;;5076468;28;20044;-25
2022/10/13 12:04:24;;;;;;;25.02;17.42;;;14.90;99.90;;;;;;5077184;28;20048;-25
2022/10/13 12:06:56;;;;;;;18.90;15.48;;;14.80;99.90;;;;;;5077747;28;20088;-25
2022/10/13 12:09:23;;;;;;;12.48;11.00;;;14.80;99.90;;;;;;5070670;28;20048;-26
2022/10/13 12:12:11;;;;;;;20.65;14.07;;;14.80;99.90;;;;;;5057930;28;20045;-25
2022/10/13 12:14:42;;;;;;;17.20;14.02;;;14.90;99.90;;;;;;5074426;28;20141;-25
2022/10/13 12:17:29;;;;;;;15.45;11.88;;;14.90;99.90;;;;;;5076991;28;20536;-25
2022/10/13 12:20:17;;;;;;;15.55;10.93;;;14.90;99.90;;;;;;5073798;28;20052;-26
2022/10/13 12:22:47;;;;;;;17.80;13.25;;;14.90;99.90;;;;;;5076150;28;20502;-25
2022/10/13 12:25:19;;;;;;;17.48;12.98;;;15.00;99.90;;;;;;5065199;28;20056;-26
2022/10/13 12:27:50;;;;;;;14.85;10.48;;;15.10;99.90;;;;;;5055592;28;20049;-25
2022/10/13 12:30:25;;;;;;;17.65;11.85;;;15.00;99.90;;;;;;5066723;28;20504;-26
2022/10/13 12:32:53;;;;;;;12.38;9.27;;;15.00;99.90;;;;;;5067392;28;20063;-26
2022/10/13 12:35:31;;;;;;;16.27;12.40;;;15.00;99.90;;;;;;5056666;28;20048;-26
2022/10/13 12:38:01;;;;;;;15.90;10.90;;;15.00;99.90;;;;;;5056575;28;20045;-26
2022/10/13 12:40:28;;;;;;;14.93;10.05;;;15.00;99.90;;;;;;5060077;28;20049;-26
2022/10/13 12:42:54;;;;;;;13.65;10.30;;;15.00;99.90;;;;;;5072537;28;20044;-26
2022/10/13 12:45:23;;;;;;;17.88;12.15;;;14.90;99.90;;;;;;5075108;28;20071;-26
2022/10/13 12:47:51;;;;;;;15.38;10.48;;;14.90;99.90;;;;;;5076413;28;20051;-26
2022/10/13 12:50:20;;;;;;;11.30;8.90;;;14.90;99.90;;;;;;5061593;28;20041;-26
2022/10/13 12:52:46;;;;;;;13.88;8.70;;;14.80;99.90;;;;;;5055823;28;20047;-25